Time;durP1;ratioP1;P1;durP2;ratioP2;P2;SDS_P1;SDS_P2;PMS_P1;PMS_P2;Temp;Humidity;BMP_temperature;BMP_pressure;BME280_temperature;BME280_humidity;BME280_pressure;Samples;Min_cycle;Max_cycle;Signal;HPM_P1;HPM_P2
2023/10/19 00:00:21;;;;;;;4.63;4.30;;;18.10;69.40;;;;;;5041818;28;20182;-69
2023/10/19 00:02:52;;;;;;;4.07;3.78;;;18.10;69.40;;;;;;5015851;28;20236;-69
2023/10/19 00:05:19;;;;;;;3.72;3.42;;;18.10;69.50;;;;;;5014739;28;20208;-69
2023/10/19 00:07:46;;;;;;;3.47;3.17;;;18.10;69.50;;;;;;5015750;28;20270;-69
2023/10/19 00:10:16;;;;;;;3.88;3.47;;;18.10;69.50;;;;;;5016349;28;20221;-69
2023/10/19 00:12:43;;;;;;;3.53;3.22;;;18.10;69.50;;;;;;5023250;28;20217;-69
2023/10/19 00:15:12;;;;;;;4.28;3.97;;;18.10;69.50;;;;;;5016947;28;20187;-69
2023/10/19 00:17:38;;;;;;;4.30;3.90;;;18.10;69.50;;;;;;5016523;28;20273;-69
2023/10/19 00:20:27;;;;;;;4.30;3.90;;;18.10;69.60;;;;;;5034465;28;20194;-69
2023/10/19 00:22:53;;;;;;;3.88;3.58;;;18.10;69.60;;;;;;5033224;28;20211;-69
2023/10/19 00:25:23;;;;;;;3.83;3.47;;;18.10;69.60;;;;;;4999432;28;20316;-69
2023/10/19 00:27:48;;;;;;;3.38;3.08;;;18.10;69.60;;;;;;5032759;28;20187;-69
2023/10/19 00:30:18;;;;;;;4.05;3.53;;;18.10;69.60;;;;;;4999624;28;20182;-69
2023/10/19 00:32:46;;;;;;;3.47;3.17;;;18.10;69.60;;;;;;5031029;28;20187;-69
2023/10/19 00:35:27;;;;;;;4.70;3.53;;;18.10;69.70;;;;;;5040619;28;20244;-69
2023/10/19 00:37:58;;;;;;;3.70;3.40;;;18.10;69.70;;;;;;5015193;28;20191;-69
2023/10/19 00:40:34;;;;;;;4.15;3.67;;;18.10;69.70;;;;;;4998438;28;20180;-69
2023/10/19 00:43:10;;;;;;;3.60;3.30;;;18.10;69.60;;;;;;5014903;28;20215;-69
2023/10/19 00:45:40;;;;;;;4.70;3.65;;;18.10;69.70;;;;;;4998326;28;20343;-69
2023/10/19 00:48:11;;;;;;;3.95;3.60;;;18.10;69.60;;;;;;5013835;28;20191;-69
2023/10/19 00:50:38;;;;;;;3.70;3.40;;;18.10;69.70;;;;;;5014984;28;20230;-69
2023/10/19 00:53:08;;;;;;;3.40;3.10;;;18.10;69.70;;;;;;5013668;28;20203;-69
2023/10/19 00:55:35;;;;;;;4.03;3.50;;;18.10;69.70;;;;;;5030507;28;20207;-69
2023/10/19 00:58:09;;;;;;;3.45;3.10;;;18.10;69.70;;;;;;5040102;28;20183;-69
2023/10/19 01:00:43;;;;;;;3.90;3.60;;;18.10;69.70;;;;;;5014271;28;20183;-69
2023/10/19 01:03:16;;;;;;;3.65;3.20;;;18.10;69.70;;;;;;5016042;28;20265;-69
2023/10/19 01:05:48;;;;;;;3.33;3.03;;;18.10;69.80;;;;;;5019499;28;20279;-69
2023/10/19 01:08:32;;;;;;;3.80;3.50;;;18.10;69.70;;;;;;5015150;28;20192;-69
2023/10/19 01:10:59;;;;;;;3.60;3.30;;;18.10;69.80;;;;;;5025336;28;20190;-69
2023/10/19 01:13:28;;;;;;;3.75;3.45;;;18.10;69.80;;;;;;4996409;28;20203;-69
2023/10/19 01:15:55;;;;;;;3.60;3.30;;;18.10;69.80;;;;;;5021739;28;20194;-69
2023/10/19 01:18:22;;;;;;;3.17;2.97;;;18.10;69.80;;;;;;5029912;28;20187;-69
2023/10/19 01:20:50;;;;;;;3.50;3.20;;;18.00;69.70;;;;;;5012185;28;20186;-69
2023/10/19 01:34:09;;;;;;;3.03;2.83;;;18.10;69.90;;;;;;5032673;28;20202;-69
2023/10/19 01:36:42;;;;;;;3.08;2.75;;;18.10;69.90;;;;;;5037691;28;20208;-69
2023/10/19 01:39:11;;;;;;;3.05;2.85;;;18.10;69.80;;;;;;5023722;28;20188;-69
2023/10/19 01:41:40;;;;;;;3.67;2.90;;;18.10;69.90;;;;;;5026903;28;20208;-71
2023/10/19 01:44:06;;;;;;;3.25;2.95;;;18.10;69.90;;;;;;5021286;28;20246;-69
2023/10/19 01:46:35;;;;;;;3.40;2.95;;;18.10;69.90;;;;;;5017471;28;20196;-69
2023/10/19 01:49:03;;;;;;;3.00;2.80;;;18.10;70.00;;;;;;5010495;28;20188;-69
2023/10/19 01:51:38;;;;;;;2.75;2.55;;;18.10;69.90;;;;;;5018134;28;20191;-69
2023/10/19 01:54:07;;;;;;;2.90;2.70;;;18.10;69.90;;;;;;5036466;28;20210;-69
2023/10/19 01:56:35;;;;;;;5.28;2.90;;;18.10;69.90;;;;;;5025212;28;20179;-69
2023/10/19 01:59:05;;;;;;;3.30;3.00;;;18.10;70.00;;;;;;5006305;28;20184;-69
2023/10/19 02:01:32;;;;;;;3.08;2.80;;;18.10;70.00;;;;;;5025244;28;20182;-69
2023/10/19 02:04:05;;;;;;;2.55;2.35;;;18.10;70.00;;;;;;5024050;28;20210;-68
2023/10/19 02:09:21;;;;;;;2.90;2.70;;;18.10;70.00;;;;;;5053075;28;20186;-69
2023/10/19 02:11:52;;;;;;;2.47;2.28;;;18.10;70.00;;;;;;5009158;28;20188;-69
2023/10/19 02:14:19;;;;;;;2.90;2.70;;;18.10;70.00;;;;;;5033831;28;20234;-69
2023/10/19 02:16:51;;;;;;;3.38;3.00;;;18.10;70.00;;;;;;5035146;28;20182;-69
2023/10/19 02:19:20;;;;;;;2.90;2.70;;;18.10;70.00;;;;;;5003067;28;20186;-69
2023/10/19 02:21:53;;;;;;;2.88;2.67;;;18.10;70.00;;;;;;5035172;28;20185;-69
2023/10/19 02:24:19;;;;;;;3.17;2.60;;;18.10;70.10;;;;;;5051379;28;20233;-69
2023/10/19 02:26:51;;;;;;;3.15;2.88;;;18.10;70.10;;;;;;5020072;28;20677;-69
2023/10/19 02:29:17;;;;;;;2.90;2.70;;;18.10;70.10;;;;;;5026565;28;20193;-69
2023/10/19 02:31:43;;;;;;;2.55;2.35;;;18.10;70.10;;;;;;5009904;28;20187;-69
2023/10/19 02:34:14;;;;;;;3.00;2.80;;;18.10;70.10;;;;;;4984706;28;20266;-69
2023/10/19 02:36:42;;;;;;;3.10;2.90;;;18.10;70.10;;;;;;5044903;28;20210;-69
2023/10/19 02:39:13;;;;;;;3.17;2.97;;;18.10;70.10;;;;;;5009537;28;20221;-69
2023/10/19 02:41:48;;;;;;;2.88;2.67;;;18.10;70.10;;;;;;5003087;28;20184;-69
2023/10/19 02:44:25;;;;;;;2.88;2.67;;;18.10;70.20;;;;;;5008335;28;20268;-69
2023/10/19 02:46:58;;;;;;;3.00;2.70;;;18.10;70.10;;;;;;5017984;28;20221;-69
2023/10/19 02:49:25;;;;;;;2.65;2.45;;;18.10;70.20;;;;;;5013926;28;20226;-69
2023/10/19 02:51:53;;;;;;;2.95;2.75;;;18.10;70.20;;;;;;5000400;28;20217;-69
2023/10/19 02:54:24;;;;;;;2.70;2.50;;;18.10;70.20;;;;;;5016175;28;20207;-69
2023/10/19 02:56:58;;;;;;;2.75;2.53;;;18.10;70.20;;;;;;5000036;28;20202;-69
2023/10/19 02:59:28;;;;;;;2.30;2.10;;;18.10;70.20;;;;;;5015188;28;20198;-69
2023/10/19 03:02:30;;;;;;;3.00;2.80;;;18.10;70.20;;;;;;5016161;28;20256;-69
2023/10/19 03:04:50;;;;;;;2.85;2.60;;;18.10;70.20;;;;;;5025716;28;20227;-68
2023/10/19 03:07:15;;;;;;;2.80;2.60;;;18.10;70.30;;;;;;5015148;28;20207;-69
2023/10/19 03:09:53;;;;;;;3.03;2.63;;;18.10;70.20;;;;;;5016136;28;20233;-69
2023/10/19 03:12:25;;;;;;;2.55;2.35;;;18.10;70.30;;;;;;5015724;28;20183;-69
2023/10/19 03:14:51;;;;;;;2.63;2.42;;;18.10;70.20;;;;;;4999966;28;20214;-69
2023/10/19 03:17:18;;;;;;;2.60;2.40;;;18.10;71.00;;;;;;5016139;28;20289;-69
2023/10/19 03:19:43;;;;;;;2.72;2.53;;;18.10;70.30;;;;;;5015274;28;20282;-69
2023/10/19 03:22:11;;;;;;;2.60;2.40;;;18.10;70.30;;;;;;5015610;28;20285;-69
2023/10/19 03:24:43;;;;;;;2.20;2.10;;;18.10;70.30;;;;;;4999607;28;20756;-69
2023/10/19 03:30:14;;;;;;;2.75;2.55;;;18.00;70.20;;;;;;5012686;28;20199;-69
2023/10/19 03:32:35;;;;;;;2.70;2.50;;;18.00;70.20;;;;;;5014516;28;20467;-69
2023/10/19 03:35:01;;;;;;;2.30;2.13;;;18.10;70.30;;;;;;5015699;28;20241;-69
2023/10/19 03:37:31;;;;;;;2.78;2.50;;;18.10;70.30;;;;;;5015390;28;20187;-69
2023/10/19 03:39:57;;;;;;;2.60;2.40;;;18.10;70.30;;;;;;5002421;28;20195;-69
2023/10/19 03:42:31;;;;;;;3.67;2.40;;;18.10;70.30;;;;;;5029930;28;20215;-69
2023/10/19 03:44:57;;;;;;;2.25;2.05;;;18.10;70.30;;;;;;5015299;28;20226;-69
2023/10/19 03:47:33;;;;;;;2.28;2.17;;;18.10;70.40;;;;;;5011281;28;20187;-69
2023/10/19 03:50:06;;;;;;;2.47;2.28;;;18.10;70.30;;;;;;5012247;28;20636;-69
2023/10/19 03:52:37;;;;;;;2.65;2.30;;;18.10;70.30;;;;;;5007375;28;20187;-69
2023/10/19 03:55:11;;;;;;;2.40;2.20;;;18.10;70.40;;;;;;5015577;28;20223;-69
2023/10/19 03:57:42;;;;;;;2.40;2.20;;;18.00;70.20;;;;;;5010403;28;20669;-69
2023/10/19 04:00:15;;;;;;;2.72;2.53;;;18.10;70.40;;;;;;5025431;28;20561;-69
2023/10/19 04:02:42;;;;;;;2.28;2.17;;;18.10;70.40;;;;;;5003887;28;20658;-69
2023/10/19 04:05:15;;;;;;;2.22;2.03;;;18.10;70.40;;;;;;5038796;28;20214;-69
2023/10/19 04:07:41;;;;;;;2.33;2.13;;;18.10;70.40;;;;;;5004493;28;20187;-69
2023/10/19 04:12:43;;;;;;;2.33;2.22;;;18.10;70.40;;;;;;5023277;28;20191;-69
2023/10/19 04:17:40;;;;;;;2.33;2.15;;;18.10;70.40;;;;;;5017136;28;20195;-69
2023/10/19 04:22:50;;;;;;;2.58;2.38;;;18.10;70.50;;;;;;5030347;28;20191;-68
2023/10/19 04:25:21;;;;;;;2.92;2.33;;;18.10;70.50;;;;;;5003972;28;20272;-68
2023/10/19 04:27:48;;;;;;;2.33;2.13;;;18.10;70.40;;;;;;5014065;28;20178;-69
2023/10/19 04:30:16;;;;;;;2.25;2.10;;;18.10;70.40;;;;;;5014204;28;20196;-68
2023/10/19 04:32:46;;;;;;;2.20;2.10;;;18.10;70.50;;;;;;5038904;28;20684;-68
2023/10/19 04:35:21;;;;;;;2.45;2.25;;;18.10;70.50;;;;;;5013296;28;20275;-68
2023/10/19 04:37:54;;;;;;;2.60;2.40;;;18.10;70.40;;;;;;5017051;28;20203;-69
2023/10/19 04:40:22;;;;;;;2.70;2.50;;;18.10;70.50;;;;;;5020105;28;20191;-69
2023/10/19 04:42:53;;;;;;;2.72;2.53;;;18.10;70.50;;;;;;5009511;28;20186;-68
2023/10/19 04:45:19;;;;;;;2.30;2.10;;;18.10;70.50;;;;;;5022657;28;20214;-69
2023/10/19 04:47:46;;;;;;;2.67;2.47;;;18.00;70.40;;;;;;5037202;28;20266;-69
2023/10/19 04:50:12;;;;;;;2.55;2.35;;;18.10;70.50;;;;;;5011076;28;20185;-69
2023/10/19 04:52:39;;;;;;;2.28;2.08;;;18.10;70.50;;;;;;5018969;28;20568;-69
2023/10/19 04:55:05;;;;;;;2.50;2.30;;;18.10;70.50;;;;;;4995698;28;20278;-69
2023/10/19 04:57:31;;;;;;;2.35;2.05;;;18.00;70.40;;;;;;5024712;28;20187;-69
2023/10/19 04:59:57;;;;;;;2.42;2.22;;;18.00;70.50;;;;;;5002988;28;20210;-69
2023/10/19 05:02:23;;;;;;;2.10;2.00;;;18.10;70.70;;;;;;4999736;28;20221;-69
2023/10/19 05:04:49;;;;;;;2.17;2.08;;;18.10;70.70;;;;;;5036845;28;20210;-69
2023/10/19 05:07:18;;;;;;;2.30;2.20;;;18.00;70.60;;;;;;4996346;28;20651;-69
2023/10/19 05:09:45;;;;;;;2.60;2.40;;;18.00;70.60;;;;;;5018443;28;20557;-68
2023/10/19 05:12:14;;;;;;;2.67;2.47;;;18.10;70.70;;;;;;5036498;28;20186;-68
2023/10/19 05:14:41;;;;;;;2.40;2.20;;;18.10;70.70;;;;;;5035494;28;20242;-69
2023/10/19 05:17:12;;;;;;;2.55;2.35;;;18.00;70.60;;;;;;5024199;28;20213;-69
2023/10/19 05:19:39;;;;;;;2.30;2.10;;;18.00;70.60;;;;;;5025950;28;20262;-69
2023/10/19 05:22:08;;;;;;;2.55;2.35;;;18.00;70.70;;;;;;5013932;28;20188;-69
2023/10/19 05:24:34;;;;;;;3.15;2.42;;;18.00;70.70;;;;;;5006865;28;20231;-70
2023/10/19 05:27:00;;;;;;;3.30;2.70;;;18.10;70.90;;;;;;5018858;28;20202;-69
2023/10/19 05:29:25;;;;;;;3.40;2.47;;;18.10;70.90;;;;;;5018878;28;20249;-69
2023/10/19 05:31:53;;;;;;;2.80;2.50;;;18.00;70.70;;;;;;5014748;28;20191;-69
2023/10/19 05:34:21;;;;;;;3.03;2.72;;;18.10;70.90;;;;;;5002285;28;20298;-69
2023/10/19 05:36:48;;;;;;;3.70;2.58;;;18.00;70.70;;;;;;5018356;28;20329;-69
2023/10/19 05:39:16;;;;;;;3.00;2.80;;;18.00;70.80;;;;;;5018341;28;20190;-70
2023/10/19 05:41:42;;;;;;;3.00;2.50;;;18.10;70.90;;;;;;5018718;28;20206;-69
2023/10/19 05:44:08;;;;;;;2.80;2.60;;;18.00;70.70;;;;;;5002136;28;20219;-69
2023/10/19 05:46:34;;;;;;;3.65;2.70;;;18.10;70.90;;;;;;5030383;28;20654;-69
2023/10/19 05:49:02;;;;;;;2.85;2.35;;;18.00;70.70;;;;;;5005870;28;20228;-69
2023/10/19 05:51:27;;;;;;;2.70;2.40;;;18.00;70.70;;;;;;5022054;28;20183;-69
2023/10/19 05:54:01;;;;;;;2.97;2.67;;;18.10;70.90;;;;;;5018638;28;20577;-69
2023/10/19 05:56:34;;;;;;;2.60;2.22;;;18.10;70.90;;;;;;5036512;28;20206;-69
2023/10/19 05:59:00;;;;;;;2.60;2.40;;;18.10;70.90;;;;;;5017354;28;20230;-69
2023/10/19 06:01:26;;;;;;;2.92;2.40;;;18.00;70.70;;;;;;5021913;28;20191;-69
2023/10/19 06:03:52;;;;;;;3.10;2.40;;;18.00;70.70;;;;;;5025021;28;20205;-69
2023/10/19 06:06:20;;;;;;;2.90;2.55;;;18.10;70.90;;;;;;5022285;28;20227;-69
2023/10/19 06:08:46;;;;;;;3.33;2.30;;;18.10;70.90;;;;;;5021468;28;20237;-69
2023/10/19 06:11:12;;;;;;;2.78;2.25;;;18.10;70.90;;;;;;5005372;28;20184;-69
2023/10/19 06:13:37;;;;;;;2.83;2.63;;;18.10;70.90;;;;;;5033196;28;20253;-69
2023/10/19 06:16:03;;;;;;;4.38;2.63;;;18.10;70.90;;;;;;5017094;28;20193;-69
2023/10/19 06:18:29;;;;;;;2.72;2.53;;;18.10;70.90;;;;;;5043303;28;20191;-69
2023/10/19 06:20:55;;;;;;;3.70;2.40;;;18.00;70.70;;;;;;5038496;28;20654;-69
2023/10/19 06:23:22;;;;;;;3.28;2.97;;;18.00;70.70;;;;;;5016900;28;20222;-68
2023/10/19 06:25:48;;;;;;;2.85;2.28;;;18.10;70.90;;;;;;5032378;28;20219;-69
2023/10/19 06:28:15;;;;;;;3.00;2.40;;;18.10;70.90;;;;;;5004681;28;20187;-69
2023/10/19 06:30:40;;;;;;;3.00;2.50;;;18.10;70.90;;;;;;5020756;28;20187;-69
2023/10/19 06:33:06;;;;;;;3.22;2.92;;;18.10;70.90;;;;;;5014351;28;20227;-69
2023/10/19 06:35:33;;;;;;;3.00;2.60;;;18.10;70.90;;;;;;5029642;28;20252;-69
2023/10/19 06:38:00;;;;;;;3.00;2.75;;;18.10;70.90;;;;;;5008466;28;20192;-69
2023/10/19 06:40:27;;;;;;;2.78;2.58;;;18.10;70.90;;;;;;5033850;28;20188;-68
2023/10/19 06:42:56;;;;;;;2.60;2.40;;;18.10;70.90;;;;;;5016501;28;20211;-69
2023/10/19 06:45:22;;;;;;;2.50;2.30;;;18.10;70.90;;;;;;5016258;28;20257;-69
2023/10/19 06:47:52;;;;;;;3.10;2.60;;;18.10;70.90;;;;;;5020554;28;20655;-69
2023/10/19 06:50:23;;;;;;;2.47;2.28;;;18.10;71.00;;;;;;5015898;28;20195;-69
2023/10/19 06:52:49;;;;;;;4.25;2.92;;;18.10;71.00;;;;;;5019847;28;20297;-69
2023/10/19 06:55:21;;;;;;;2.85;2.58;;;18.10;71.10;;;;;;5014537;28;20192;-69
2023/10/19 06:57:52;;;;;;;2.60;2.40;;;18.00;71.10;;;;;;5018667;28;20188;-69
2023/10/19 07:00:22;;;;;;;2.70;2.50;;;18.10;71.10;;;;;;5024881;28;20284;-69
2023/10/19 07:02:52;;;;;;;2.63;2.42;;;18.10;71.30;;;;;;5015808;28;20191;-69
2023/10/19 07:05:29;;;;;;;3.38;2.55;;;18.10;71.20;;;;;;5012772;28;20212;-69
2023/10/19 07:07:56;;;;;;;4.20;2.22;;;18.10;71.20;;;;;;5023198;28;20194;-70
2023/10/19 07:10:23;;;;;;;3.05;2.80;;;18.10;71.30;;;;;;5016206;28;20183;-69
2023/10/19 07:12:53;;;;;;;3.13;2.72;;;18.10;71.20;;;;;;5042860;28;20194;-69
2023/10/19 07:15:22;;;;;;;3.85;3.45;;;18.10;71.30;;;;;;5020714;28;20183;-69
2023/10/19 07:17:52;;;;;;;4.03;3.63;;;18.10;71.20;;;;;;5032475;28;20191;-69
2023/10/19 07:20:38;;;;;;;4.85;3.90;;;18.10;71.30;;;;;;5019370;28;20286;-69
2023/10/19 07:23:18;;;;;;;4.60;3.40;;;18.10;71.40;;;;;;5010597;28;20211;-69
2023/10/19 07:25:54;;;;;;;3.75;3.05;;;18.10;71.40;;;;;;5019100;28;20226;-69
2023/10/19 07:28:21;;;;;;;3.72;2.80;;;18.10;71.40;;;;;;5019313;28;20195;-69
2023/10/19 07:30:47;;;;;;;3.72;3.40;;;18.10;71.40;;;;;;5033622;28;20187;-69
2023/10/19 07:33:17;;;;;;;4.40;3.30;;;18.10;71.50;;;;;;5002164;28;20750;-69
2023/10/19 07:35:46;;;;;;;4.10;3.40;;;18.10;71.40;;;;;;5033370;28;20255;-69
2023/10/19 07:38:14;;;;;;;3.80;3.38;;;18.10;71.40;;;;;;5033324;28;20685;-69
2023/10/19 07:40:40;;;;;;;3.65;3.30;;;18.10;71.50;;;;;;5037092;28;20187;-69
2023/10/19 07:43:08;;;;;;;4.65;3.28;;;18.10;71.50;;;;;;5038225;28;20210;-69
2023/10/19 07:45:34;;;;;;;3.65;3.22;;;18.10;71.50;;;;;;5033043;28;20302;-69
2023/10/19 07:48:06;;;;;;;3.97;3.42;;;18.10;71.60;;;;;;5015244;28;20263;-69
2023/10/19 07:50:33;;;;;;;3.80;3.50;;;18.10;71.60;;;;;;5035017;28;20196;-69
2023/10/19 07:52:59;;;;;;;3.50;3.20;;;18.10;71.60;;;;;;5018163;28;20207;-69
2023/10/19 07:55:25;;;;;;;3.72;3.28;;;18.10;71.60;;;;;;5015214;28;20191;-69
2023/10/19 07:57:52;;;;;;;4.03;3.63;;;18.10;71.60;;;;;;5017907;28;20249;-69
2023/10/19 08:00:20;;;;;;;3.85;3.45;;;18.10;71.60;;;;;;5018081;28;20184;-69
2023/10/19 08:02:47;;;;;;;4.93;3.60;;;18.10;71.70;;;;;;5035353;28;20187;-69
2023/10/19 08:05:20;;;;;;;3.58;3.22;;;18.10;71.70;;;;;;5020532;28;20708;-69
2023/10/19 08:07:47;;;;;;;4.80;3.67;;;18.10;71.70;;;;;;5017705;28;20190;-69
2023/10/19 08:10:18;;;;;;;4.80;3.42;;;18.10;71.70;;;;;;5000027;28;20172;-69
2023/10/19 08:12:47;;;;;;;4.05;3.05;;;18.10;71.80;;;;;;5034950;28;20171;-69
2023/10/19 08:15:17;;;;;;;3.88;3.45;;;18.10;71.80;;;;;;5013864;28;20632;-69
2023/10/19 08:17:47;;;;;;;3.72;3.03;;;18.10;71.80;;;;;;5014752;28;20191;-69
2023/10/19 08:20:22;;;;;;;3.38;3.08;;;18.10;71.80;;;;;;5017566;28;20195;-69
2023/10/19 08:22:53;;;;;;;4.03;3.13;;;18.10;71.80;;;;;;5022393;28;20298;-69
2023/10/19 08:25:20;;;;;;;3.88;3.00;;;18.10;71.80;;;;;;4997889;28;20931;-69
2023/10/19 08:27:50;;;;;;;6.07;3.30;;;18.10;71.80;;;;;;5032119;28;20183;-69
2023/10/19 08:30:21;;;;;;;3.13;2.83;;;18.10;71.80;;;;;;5013645;28;20271;-69
2023/10/19 08:32:49;;;;;;;4.13;2.60;;;18.10;71.80;;;;;;5024927;28;20209;-69
2023/10/19 08:35:25;;;;;;;3.22;2.92;;;18.10;71.80;;;;;;5014356;28;20193;-69
2023/10/19 08:37:57;;;;;;;3.45;3.00;;;18.10;71.80;;;;;;5018353;28;20256;-69
2023/10/19 08:40:26;;;;;;;3.00;2.70;;;18.10;71.90;;;;;;4997337;28;20260;-69
2023/10/19 08:42:53;;;;;;;3.15;2.85;;;18.20;72.00;;;;;;5014724;28;20214;-69
2023/10/19 08:45:21;;;;;;;3.53;3.20;;;18.10;71.90;;;;;;5016335;28;20213;-69
2023/10/19 08:47:58;;;;;;;3.13;2.83;;;18.10;71.90;;;;;;5016880;28;20184;-69
2023/10/19 08:50:29;;;;;;;3.65;2.95;;;18.20;72.00;;;;;;5010963;28;20182;-69
2023/10/19 08:52:58;;;;;;;3.20;2.90;;;18.20;72.10;;;;;;5014136;28;20218;-69
2023/10/19 08:55:25;;;;;;;3.22;2.92;;;18.20;72.00;;;;;;5010832;28;20183;-69
2023/10/19 08:57:52;;;;;;;3.20;2.75;;;18.20;72.00;;;;;;5030606;28;20266;-69
2023/10/19 09:00:19;;;;;;;3.70;2.88;;;18.20;72.00;;;;;;5001977;28;20655;-69
2023/10/19 09:02:45;;;;;;;3.25;2.95;;;18.20;72.10;;;;;;5016202;28;20277;-69
2023/10/19 09:05:25;;;;;;;3.67;2.58;;;18.20;72.10;;;;;;4995697;28;20204;-69
2023/10/19 09:07:55;;;;;;;3.17;2.70;;;18.20;72.10;;;;;;5015972;28;20225;-69
2023/10/19 09:10:27;;;;;;;2.83;2.53;;;18.20;72.20;;;;;;5017859;28;20175;-69
2023/10/19 09:13:02;;;;;;;2.60;2.38;;;18.20;72.30;;;;;;5031684;28;20187;-69
2023/10/19 09:15:32;;;;;;;3.03;2.70;;;18.20;72.30;;;;;;5028158;28;20657;-69
2023/10/19 09:18:11;;;;;;;2.83;2.60;;;18.20;72.20;;;;;;5015314;28;20222;-69
2023/10/19 09:20:37;;;;;;;2.50;2.30;;;18.20;72.30;;;;;;5014004;28;20186;-69
2023/10/19 09:23:03;;;;;;;2.45;2.25;;;18.20;72.30;;;;;;5015276;28;20219;-69
2023/10/19 09:25:29;;;;;;;3.00;2.40;;;18.20;72.30;;;;;;5032165;28;20265;-69
2023/10/19 09:27:55;;;;;;;2.40;2.20;;;18.20;72.30;;;;;;5031497;28;20233;-69
2023/10/19 09:30:25;;;;;;;2.30;2.17;;;18.20;72.30;;;;;;5015632;28;20556;-69
2023/10/19 09:32:53;;;;;;;2.55;2.30;;;18.20;72.40;;;;;;5027480;28;20279;-69
2023/10/19 09:35:20;;;;;;;2.35;2.13;;;18.20;72.40;;;;;;5033177;28;20190;-69
2023/10/19 09:37:47;;;;;;;2.67;2.47;;;18.20;72.40;;;;;;5030261;28;20202;-69
2023/10/19 09:40:13;;;;;;;2.58;2.08;;;18.20;72.30;;;;;;5033090;28;20182;-69
2023/10/19 09:42:46;;;;;;;2.25;2.05;;;18.20;72.40;;;;;;5030210;28;20187;-69
2023/10/19 09:45:17;;;;;;;2.17;1.98;;;18.20;72.50;;;;;;5031873;28;20671;-69
2023/10/19 09:47:49;;;;;;;2.53;2.33;;;18.20;72.50;;;;;;5015430;28;20178;-69
2023/10/19 09:50:15;;;;;;;2.50;2.30;;;18.20;72.50;;;;;;5032894;28;20202;-69
2023/10/19 09:52:41;;;;;;;2.63;2.38;;;18.20;73.20;;;;;;5038441;28;20178;-68
2023/10/19 09:55:29;;;;;;;2.55;2.35;;;18.20;72.70;;;;;;5015890;28;20291;-69
2023/10/19 09:58:19;;;;;;;2.08;1.98;;;18.20;72.80;;;;;;5014724;28;20728;-69
2023/10/19 10:00:49;;;;;;;2.22;2.03;;;18.20;72.70;;;;;;4994744;28;20209;-69
2023/10/19 10:03:53;;;;;;;2.58;2.30;;;18.20;72.60;;;;;;5013347;28;20277;-69
2023/10/19 10:06:30;;;;;;;2.30;2.10;;;18.20;72.70;;;;;;5030492;28;20217;-69
2023/10/19 10:09:00;;;;;;;2.40;2.20;;;18.20;72.70;;;;;;5030921;28;20199;-69
2023/10/19 10:11:28;;;;;;;3.38;2.35;;;18.20;72.80;;;;;;4992102;28;20246;-69
2023/10/19 10:13:56;;;;;;;2.05;1.95;;;18.20;72.80;;;;;;5031344;28;20211;-69
2023/10/19 10:16:27;;;;;;;2.95;2.30;;;18.30;73.00;;;;;;5031112;28;20242;-69
2023/10/19 10:19:01;;;;;;;3.15;2.00;;;18.30;73.00;;;;;;5032073;28;20187;-69
2023/10/19 10:21:29;;;;;;;2.15;2.00;;;18.30;73.10;;;;;;5004924;28;20207;-69
2023/10/19 10:23:59;;;;;;;2.50;1.85;;;18.20;72.90;;;;;;5015060;28;20242;-69
2023/10/19 10:26:36;;;;;;;2.30;2.10;;;18.30;73.30;;;;;;5013234;28;20203;-69
2023/10/19 10:29:09;;;;;;;2.67;2.47;;;18.30;73.00;;;;;;5014125;28;20183;-69
2023/10/19 10:31:42;;;;;;;2.05;1.80;;;18.30;73.00;;;;;;5034178;28;20237;-69
2023/10/19 10:34:10;;;;;;;2.15;1.95;;;18.30;73.20;;;;;;5017179;28;20702;-69
2023/10/19 10:37:02;;;;;;;2.58;2.38;;;18.30;73.00;;;;;;5033242;28;20273;-69
2023/10/19 10:39:34;;;;;;;2.40;2.20;;;18.30;73.00;;;;;;5024038;28;20564;-69
2023/10/19 10:42:05;;;;;;;2.20;2.05;;;18.30;73.10;;;;;;5014935;28;20210;-69
2023/10/19 10:44:45;;;;;;;2.10;1.90;;;18.30;73.20;;;;;;5035104;28;20209;-69
2023/10/19 10:47:16;;;;;;;2.17;1.98;;;18.30;73.20;;;;;;5017098;28;20211;-69
2023/10/19 10:49:49;;;;;;;2.10;1.90;;;18.30;73.20;;;;;;5016852;28;20194;-69
2023/10/19 10:52:29;;;;;;;1.95;1.75;;;18.30;73.30;;;;;;5034428;28;20209;-69
2023/10/19 10:54:57;;;;;;;1.90;1.80;;;18.30;73.30;;;;;;5016210;28;20211;-69
2023/10/19 10:57:23;;;;;;;1.80;1.70;;;18.30;73.10;;;;;;5016535;28;20182;-69
2023/10/19 11:00:19;;;;;;;2.20;2.00;;;18.30;73.20;;;;;;5034094;28;20186;-69
2023/10/19 11:03:01;;;;;;;2.03;1.83;;;18.30;73.30;;;;;;5032440;28;20180;-68
2023/10/19 11:05:27;;;;;;;2.00;1.90;;;18.30;73.40;;;;;;5001135;28;20275;-69
2023/10/19 11:08:13;;;;;;;2.13;2.03;;;18.30;73.40;;;;;;5016226;28;20209;-69
2023/10/19 11:10:42;;;;;;;2.00;1.80;;;18.30;73.50;;;;;;5012807;28;20183;-68
2023/10/19 11:13:11;;;;;;;2.30;2.10;;;18.30;73.40;;;;;;5033089;28;20615;-69
2023/10/19 11:15:47;;;;;;;1.52;1.42;;;18.30;73.50;;;;;;5016957;28;20176;-69
2023/10/19 11:18:36;;;;;;;2.17;1.80;;;18.30;73.60;;;;;;5017049;28;20197;-69
2023/10/19 11:21:07;;;;;;;2.38;1.92;;;18.30;73.70;;;;;;5015534;28;20191;-69
2023/10/19 11:23:46;;;;;;;1.70;1.60;;;18.30;73.40;;;;;;5021113;28;20274;-69
2023/10/19 11:26:15;;;;;;;1.90;1.70;;;18.30;73.40;;;;;;5002984;28;20215;-69
2023/10/19 11:28:50;;;;;;;1.70;1.60;;;18.30;73.70;;;;;;5021064;28;20183;-68
2023/10/19 11:31:24;;;;;;;2.05;1.85;;;18.30;73.70;;;;;;5016125;28;20277;-68
2023/10/19 11:33:58;;;;;;;1.83;1.73;;;18.30;74.00;;;;;;5024047;28;20216;-69
2023/10/19 11:36:24;;;;;;;2.10;1.90;;;18.30;73.80;;;;;;5029289;28;20175;-69
2023/10/19 11:38:52;;;;;;;3.42;2.30;;;18.30;73.90;;;;;;5009847;28;20212;-69
2023/10/19 11:41:19;;;;;;;2.97;2.15;;;18.30;73.80;;;;;;5035536;28;20221;-69
2023/10/19 11:43:47;;;;;;;2.33;2.13;;;18.30;73.70;;;;;;5020381;28;20199;-69
2023/10/19 11:46:14;;;;;;;3.33;2.55;;;18.30;74.00;;;;;;5031860;28;20215;-68
2023/10/19 11:48:42;;;;;;;3.13;2.50;;;18.30;73.80;;;;;;5015601;28;20183;-69
2023/10/19 11:51:10;;;;;;;3.08;2.50;;;18.30;73.90;;;;;;5017410;28;20664;-69
2023/10/19 11:53:38;;;;;;;2.85;2.50;;;18.30;73.90;;;;;;4994363;28;20232;-69
2023/10/19 11:56:11;;;;;;;4.40;2.60;;;18.40;73.90;;;;;;4998882;28;20706;-69
2023/10/19 11:58:39;;;;;;;3.88;2.88;;;18.30;74.00;;;;;;4999188;28;20187;-69
2023/10/19 12:01:08;;;;;;;6.28;2.78;;;18.40;74.20;;;;;;5021196;28;20195;-69
2023/10/19 12:03:39;;;;;;;3.65;2.75;;;18.30;74.00;;;;;;5003712;28;20214;-69
2023/10/19 12:06:06;;;;;;;4.90;3.05;;;18.40;74.20;;;;;;5043719;28;20208;-69
2023/10/19 12:08:37;;;;;;;3.60;2.60;;;18.30;74.20;;;;;;5015897;28;20198;-69
2023/10/19 12:11:14;;;;;;;4.05;2.92;;;18.40;74.30;;;;;;5002969;28;20219;-69
2023/10/19 12:13:44;;;;;;;3.47;2.88;;;18.40;74.20;;;;;;5009141;28;20199;-69
2023/10/19 12:16:17;;;;;;;4.65;2.75;;;18.40;74.10;;;;;;5032559;28;20198;-69
2023/10/19 12:18:44;;;;;;;4.30;2.80;;;18.40;74.20;;;;;;5032203;28;20198;-69
2023/10/19 12:21:17;;;;;;;3.42;2.72;;;18.40;74.50;;;;;;5014497;28;20666;-69
2023/10/19 12:23:44;;;;;;;4.05;2.95;;;18.40;74.20;;;;;;5014792;28;20211;-69
2023/10/19 12:26:11;;;;;;;3.97;3.10;;;18.40;74.20;;;;;;4998186;28;20245;-69
2023/10/19 12:28:41;;;;;;;4.03;2.60;;;18.40;74.40;;;;;;5032303;28;20179;-69
2023/10/19 12:31:10;;;;;;;3.53;2.58;;;18.40;74.30;;;;;;5014312;28;20276;-69
2023/10/19 12:33:41;;;;;;;3.60;2.90;;;18.30;74.10;;;;;;5014433;28;20207;-69
2023/10/19 12:38:52;;;;;;;3.80;2.58;;;18.40;74.40;;;;;;5011157;28;20184;-69
2023/10/19 12:41:21;;;;;;;4.65;2.90;;;18.40;74.50;;;;;;5014238;28;20187;-69
2023/10/19 12:43:47;;;;;;;4.63;3.00;;;18.40;74.50;;;;;;5012621;28;20211;-68
2023/10/19 12:46:16;;;;;;;4.97;3.13;;;18.40;74.40;;;;;;5031982;28;20206;-70
2023/10/19 12:48:43;;;;;;;4.68;3.28;;;18.30;74.50;;;;;;5003250;28;20183;-69
2023/10/19 12:51:11;;;;;;;3.72;2.83;;;18.40;74.70;;;;;;5028995;28;20232;-69
2023/10/19 12:53:38;;;;;;;4.32;2.97;;;18.40;74.80;;;;;;5004671;28;20199;-69
2023/10/19 12:56:10;;;;;;;3.78;2.80;;;18.40;74.60;;;;;;5019610;28;20278;-69
2023/10/19 12:58:37;;;;;;;4.55;3.08;;;18.40;74.60;;;;;;5028617;28;20182;-69
2023/10/19 13:01:05;;;;;;;3.95;2.90;;;18.40;74.50;;;;;;5004865;28;20191;-69
2023/10/19 13:03:32;;;;;;;4.10;3.08;;;18.40;74.90;;;;;;5017527;28;20206;-69
2023/10/19 13:05:58;;;;;;;4.70;3.15;;;18.40;74.80;;;;;;5024834;28;20221;-69
2023/10/19 13:08:27;;;;;;;4.45;2.85;;;18.40;74.70;;;;;;5014037;28;20183;-69
2023/10/19 13:10:54;;;;;;;4.78;2.88;;;18.40;74.90;;;;;;5022268;28;20212;-69
2023/10/19 13:13:23;;;;;;;4.38;2.95;;;18.40;74.90;;;;;;5047070;28;20218;-69
2023/10/19 13:15:49;;;;;;;4.22;2.80;;;18.40;74.80;;;;;;5015322;28;20184;-68
2023/10/19 13:18:22;;;;;;;4.65;2.97;;;18.40;75.70;;;;;;5014451;28;20195;-69
2023/10/19 13:20:48;;;;;;;5.30;3.10;;;18.40;74.90;;;;;;5016879;28;20188;-69
2023/10/19 13:23:21;;;;;;;4.38;3.13;;;18.40;74.90;;;;;;5012369;28;20206;-69
2023/10/19 13:25:53;;;;;;;6.13;3.30;;;18.40;74.90;;;;;;5010537;28;20220;-69
2023/10/19 13:28:22;;;;;;;5.07;2.80;;;18.40;75.00;;;;;;5011416;28;20187;-69